Time;durP1;ratioP1;P1;durP2;ratioP2;P2;SDS_P1;SDS_P2;PMS_P1;PMS_P2;Temp;Humidity;BMP_temperature;BMP_pressure;BME280_temperature;BME280_humidity;BME280_pressure;Samples;Min_cycle;Max_cycle;Signal;HPM_P1;HPM_P2
2022/12/12 00:01:14;;;;;;;;;;;0.90;97.10;;;;;;5066344;28;20002;-75
2022/12/12 00:03:41;;;;;;;;;;;0.90;97.20;;;;;;5067579;28;19979;-75
2022/12/12 00:06:09;;;;;;;;;;;0.90;97.20;;;;;;5064524;28;19979;-75
2022/12/12 00:08:36;;;;;;;;;;;0.90;97.20;;;;;;5062511;28;20648;-75
2022/12/12 00:11:03;;;;;;;;;;;0.90;97.20;;;;;;5063942;28;20037;-75
2022/12/12 00:13:30;;;;;;;;;;;0.90;97.20;;;;;;5059709;28;19980;-75
2022/12/12 00:15:56;;;;;;;;;;;0.90;97.20;;;;;;5061386;28;20039;-75
2022/12/12 00:18:23;;;;;;;;;;;0.90;97.20;;;;;;5066318;28;20520;-75
2022/12/12 00:20:51;;;;;;;;;;;0.90;97.20;;;;;;5060650;28;20049;-75
2022/12/12 00:23:19;;;;;;;;;;;0.80;97.20;;;;;;5055961;28;20428;-75
2022/12/12 00:25:52;;;;;;;;;;;0.80;97.20;;;;;;5056278;28;19976;-74
2022/12/12 00:28:19;;;;;;;;;;;0.80;97.20;;;;;;5060643;28;20081;-75
2022/12/12 00:30:45;;;;;;;;;;;0.80;97.40;;;;;;5062676;28;20177;-75
2022/12/12 00:33:12;;;;;;;;;;;0.80;97.20;;;;;;5063548;28;19975;-74
2022/12/12 00:35:38;;;;;;;;;;;0.80;97.30;;;;;;5061899;28;19990;-75
2022/12/12 00:38:05;;;;;;;;;;;0.80;97.30;;;;;;5062396;28;19975;-75
2022/12/12 00:40:33;;;;;;;;;;;0.80;97.30;;;;;;5062148;28;19992;-75
2022/12/12 00:42:59;;;;;;;;;;;0.80;97.30;;;;;;5061078;28;19982;-75
2022/12/12 00:45:26;;;;;;;;;;;0.80;97.30;;;;;;5065181;28;19995;-75
2022/12/12 00:47:52;;;;;;;;;;;0.80;97.30;;;;;;5065085;28;19976;-75
2022/12/12 00:50:19;;;;;;;;;;;0.70;97.30;;;;;;5062430;28;20462;-75
2022/12/12 00:52:46;;;;;;;;;;;0.70;97.30;;;;;;5066092;28;20491;-74
2022/12/12 00:55:12;;;;;;;;;;;0.80;97.30;;;;;;5062003;28;20431;-75
2022/12/12 00:57:40;;;;;;;;;;;0.70;97.30;;;;;;5063316;28;19979;-75
2022/12/12 01:00:08;;;;;;;;;;;0.70;97.30;;;;;;5058333;28;19999;-74
2022/12/12 01:02:35;;;;;;;;;;;0.70;97.30;;;;;;5059741;28;20062;-75
2022/12/12 01:05:01;;;;;;;;;;;0.70;97.30;;;;;;5058580;28;19982;-75
2022/12/12 01:07:28;;;;;;;;;;;0.70;97.30;;;;;;5058325;28;19983;-75
2022/12/12 01:09:55;;;;;;;;;;;0.70;97.40;;;;;;5054817;28;20042;-74
2022/12/12 01:12:21;;;;;;;;;;;0.70;97.40;;;;;;5060006;28;19979;-74
2022/12/12 01:14:49;;;;;;;;;;;0.70;97.40;;;;;;5061103;28;19982;-75
2022/12/12 01:17:16;;;;;;;;;;;0.70;97.40;;;;;;5057501;28;19991;-74
2022/12/12 01:19:42;;;;;;;;;;;0.70;97.40;;;;;;5063874;28;19986;-74
2022/12/12 01:22:09;;;;;;;;;;;0.70;97.50;;;;;;5062727;28;19995;-75
2022/12/12 01:24:36;;;;;;;;;;;0.70;97.40;;;;;;5060155;28;20681;-75
2022/12/12 01:27:02;;;;;;;;;;;0.70;97.40;;;;;;5059037;28;19975;-75
2022/12/12 01:29:29;;;;;;;;;;;0.70;97.40;;;;;;5057485;28;19984;-74
2022/12/12 01:31:57;;;;;;;;;;;0.70;97.40;;;;;;5060316;28;20002;-75
2022/12/12 01:34:23;;;;;;;;;;;0.70;97.40;;;;;;5064504;28;20009;-75
2022/12/12 01:36:50;;;;;;;;;;;0.70;97.40;;;;;;5056540;28;19984;-75
2022/12/12 01:39:16;;;;;;;;;;;0.70;97.40;;;;;;5059113;28;19986;-75
2022/12/12 01:41:43;;;;;;;;;;;0.70;97.40;;;;;;5061636;28;21987;-75
2022/12/12 01:44:31;;;;;;;;;;;0.70;97.40;;;;;;5055394;28;20052;-75
2022/12/12 01:47:00;;;;;;;;;;;0.70;97.50;;;;;;5052218;28;20488;-74
2022/12/12 01:49:27;;;;;;;;;;;0.70;97.50;;;;;;5059961;28;20466;-75
2022/12/12 01:51:56;;;;;;;;;;;0.70;97.50;;;;;;5062918;28;20714;-75
2022/12/12 01:54:25;;;;;;;;;;;0.70;97.50;;;;;;5061901;28;19990;-75
2022/12/12 01:56:52;;;;;;;;;;;0.70;97.50;;;;;;5060942;28;19984;-75
2022/12/12 01:59:20;;;;;;;;;;;0.70;97.50;;;;;;5057517;28;19982;-75
2022/12/12 02:01:47;;;;;;;;;;;0.60;97.40;;;;;;5058648;28;19996;-73
2022/12/12 02:04:15;;;;;;;;;;;0.60;97.50;;;;;;5058383;28;20062;-74
2022/12/12 02:06:42;;;;;;;;;;;0.70;97.50;;;;;;5058196;28;19976;-73
2022/12/12 02:09:11;;;;;;;;;;;0.60;97.40;;;;;;5053576;28;19976;-74
2022/12/12 02:11:42;;;;;;;;;;;0.70;97.40;;;;;;5056636;28;19999;-74
2022/12/12 02:14:08;;;;;;;;;;;0.60;97.40;;;;;;5052803;28;20014;-74
2022/12/12 02:16:41;;;;;;;;;;;0.60;97.40;;;;;;5053516;28;19995;-75
2022/12/12 02:19:21;;;;;;;;;;;0.70;97.50;;;;;;5059428;28;19975;-75
2022/12/12 02:21:51;;;;;;;;;;;0.60;97.40;;;;;;5060285;28;19999;-75
2022/12/12 02:24:35;;;;;;;;;;;0.60;97.40;;;;;;5054109;28;19971;-75
2022/12/12 02:27:12;;;;;;;;;;;0.60;97.40;;;;;;5055683;28;19975;-75
2022/12/12 02:30:00;;;;;;;;;;;0.60;97.40;;;;;;5057491;28;19979;-75
2022/12/12 02:32:31;;;;;;;;;;;0.60;97.40;;;;;;5056642;28;19999;-74
2022/12/12 02:35:02;;;;;;;;;;;0.60;97.50;;;;;;5052309;28;19975;-75
2022/12/12 02:37:31;;;;;;;;;;;0.60;97.50;;;;;;5050188;28;19984;-76
2022/12/12 02:40:00;;;;;;;;;;;0.60;97.40;;;;;;5062151;28;19987;-76
2022/12/12 02:42:29;;;;;;;;;;;0.60;97.40;;;;;;5055556;28;20022;-75
2022/12/12 02:44:58;;;;;;;;;;;0.60;97.50;;;;;;5056578;28;19979;-75
2022/12/12 02:47:28;;;;;;;;;;;0.60;97.50;;;;;;5054521;28;20010;-75
2022/12/12 02:49:58;;;;;;;;;;;0.60;97.50;;;;;;5054584;28;19991;-75
2022/12/12 02:52:25;;;;;;;;;;;0.50;97.50;;;;;;5056100;28;19980;-75
2022/12/12 02:54:52;;;;;;;;;;;0.60;97.50;;;;;;5051101;28;19982;-75
2022/12/12 02:57:19;;;;;;;;;;;0.60;97.50;;;;;;5057920;28;19983;-74
2022/12/12 02:59:48;;;;;;;;;;;0.50;97.50;;;;;;5053230;28;19975;-74
2022/12/12 03:02:42;;;;;;;;;;;0.50;97.50;;;;;;5058573;28;20003;-75
2022/12/12 03:08:08;;;;;;;;;;;0.50;97.50;;;;;;5055598;28;20109;-75
2022/12/12 03:10:42;;;;;;;;;;;0.50;97.50;;;;;;5052341;28;20498;-75
2022/12/12 03:13:11;;;;;;;;;;;0.50;97.50;;;;;;5056870;28;19980;-75
2022/12/12 03:15:42;;;;;;;;;;;0.50;97.50;;;;;;5051572;28;20558;-74
2022/12/12 03:18:14;;;;;;;;;;;0.50;97.80;;;;;;5054050;28;19982;-74
2022/12/12 03:20:45;;;;;;;;;;;0.50;97.50;;;;;;5056234;28;20592;-74
2022/12/12 03:23:14;;;;;;;;;;;0.50;97.50;;;;;;5059350;28;19998;-75
2022/12/12 03:25:45;;;;;;;;;;;0.50;97.50;;;;;;5056266;28;19987;-75
2022/12/12 03:28:14;;;;;;;;;;;0.50;97.40;;;;;;5052292;28;19987;-75
2022/12/12 03:30:42;;;;;;;;;;;0.40;97.50;;;;;;5046721;28;20000;-76
2022/12/12 03:33:14;;;;;;;;;;;0.40;97.50;;;;;;5057868;28;19986;-75
2022/12/12 03:35:45;;;;;;;;;;;0.40;97.50;;;;;;5059892;28;19983;-75
2022/12/12 03:38:14;;;;;;;;;;;0.40;97.50;;;;;;5056119;28;20439;-74
2022/12/12 03:40:43;;;;;;;;;;;0.40;97.50;;;;;;5053653;28;19995;-75
2022/12/12 03:43:11;;;;;;;;;;;0.40;97.50;;;;;;5049777;28;19976;-75
2022/12/12 03:45:40;;;;;;;;;;;0.40;97.50;;;;;;5051250;28;19991;-75
2022/12/12 03:48:09;;;;;;;;;;;0.40;97.50;;;;;;5056006;28;20439;-76
2022/12/12 03:50:41;;;;;;;;;;;0.40;97.50;;;;;;5056834;28;19991;-74
2022/12/12 03:53:11;;;;;;;;;;;0.40;97.50;;;;;;5056623;28;20094;-75
2022/12/12 03:55:40;;;;;;;;;;;0.40;97.50;;;;;;5057802;28;20597;-75
2022/12/12 03:58:10;;;;;;;;;;;0.40;97.50;;;;;;5059811;28;19984;-75
2022/12/12 04:00:37;;;;;;;;;;;0.30;97.40;;;;;;5053291;28;20006;-74
2022/12/12 04:03:08;;;;;;;;;;;0.30;97.40;;;;;;5060999;28;20463;-75
2022/12/12 04:05:37;;;;;;;;;;;0.30;97.40;;;;;;5060129;28;21090;-75
2022/12/12 04:08:07;;;;;;;;;;;0.40;97.50;;;;;;5062211;28;19976;-74
2022/12/12 04:13:26;;;;;;;;;;;0.30;97.40;;;;;;5060585;28;20466;-74
2022/12/12 04:15:59;;;;;;;;;;;0.20;97.40;;;;;;5059409;28;19992;-75
2022/12/12 04:18:30;;;;;;;;;;;0.30;97.40;;;;;;5061070;28;20436;-74
2022/12/12 04:23:55;;;;;;;;;;;0.20;97.40;;;;;;5053796;28;20347;-75
2022/12/12 04:26:39;;;;;;;;;;;0.20;97.40;;;;;;5054652;28;19990;-73
2022/12/12 04:29:09;;;;;;;;;;;0.20;97.40;;;;;;5063218;28;20001;-75
2022/12/12 04:31:38;;;;;;;;;;;0.20;97.40;;;;;;5058502;28;20486;-73
2022/12/12 04:34:10;;;;;;;;;;;0.20;97.40;;;;;;5057600;28;19975;-74
2022/12/12 04:36:37;;;;;;;;;;;0.10;97.30;;;;;;5052693;28;19994;-71
2022/12/12 04:39:05;;;;;;;;;;;0.10;97.30;;;;;;5058050;28;19975;-75
2022/12/12 04:41:34;;;;;;;;;;;0.10;97.30;;;;;;5055961;28;19995;-73
2022/12/12 04:44:01;;;;;;;;;;;0.10;97.30;;;;;;5052165;28;19979;-73
2022/12/12 04:46:29;;;;;;;;;;;0.10;97.30;;;;;;5058873;28;20065;-74
2022/12/12 04:48:57;;;;;;;;;;;0.10;97.30;;;;;;5058885;28;19987;-74
2022/12/12 04:51:26;;;;;;;;;;;0.00;97.30;;;;;;5062031;28;19996;-74
2022/12/12 04:53:54;;;;;;;;;;;0.00;97.20;;;;;;5055956;28;19980;-74
2022/12/12 04:56:23;;;;;;;;;;;0.00;97.20;;;;;;5058868;28;19982;-75
2022/12/12 04:58:51;;;;;;;;;;;0.00;97.20;;;;;;5058789;28;19979;-74
2022/12/12 05:01:22;;;;;;;;;;;0.00;97.20;;;;;;5054308;28;20000;-74
2022/12/12 05:03:49;;;;;;;;;;;0.00;97.30;;;;;;5054717;28;19986;-74
2022/12/12 05:06:19;;;;;;;;;;;-0.10;97.20;;;;;;5059939;28;20959;-74
2022/12/12 05:08:47;;;;;;;;;;;-0.10;97.20;;;;;;5061662;28;19980;-73
2022/12/12 05:11:14;;;;;;;;;;;-0.10;97.20;;;;;;5060318;28;20078;-75
2022/12/12 05:13:42;;;;;;;;;;;-0.10;97.20;;;;;;5062080;28;19979;-74
2022/12/12 05:16:14;;;;;;;;;;;-0.10;97.20;;;;;;5055161;28;20402;-74
2022/12/12 05:18:41;;;;;;;;;;;-0.10;97.20;;;;;;5060664;28;19986;-74
2022/12/12 05:21:07;;;;;;;;;;;-0.10;97.20;;;;;;5060650;28;19999;-74
2022/12/12 05:23:34;;;;;;;;;;;-0.20;97.10;;;;;;5058899;28;19979;-74
2022/12/12 05:26:05;;;;;;;;;;;-0.20;97.10;;;;;;5052838;28;19979;-73
2022/12/12 05:28:31;;;;;;;;;;;-0.20;97.10;;;;;;5065321;28;20343;-74
2022/12/12 05:30:58;;;;;;;;;;;-0.20;97.10;;;;;;5059005;28;20004;-74
2022/12/12 05:33:26;;;;;;;;;;;-0.20;97.10;;;;;;5085540;28;19979;-73
2022/12/12 05:35:52;;;;;;;;;;;-0.20;97.20;;;;;;5084616;28;19999;-74
2022/12/12 05:38:19;;;;;;;;;;;-0.30;97.10;;;;;;5085850;28;19975;-74
2022/12/12 05:40:46;;;;;;;;;;;-0.30;97.10;;;;;;5081633;28;19998;-74
2022/12/12 05:43:12;;;;;;;;;;;-0.30;97.10;;;;;;5083357;28;19995;-74
2022/12/12 05:45:39;;;;;;;;;;;-0.30;97.10;;;;;;5076689;28;20396;-73
2022/12/12 05:48:06;;;;;;;;;;;-0.30;97.10;;;;;;5060068;28;19983;-74
2022/12/12 05:50:34;;;;;;;;;;;-0.40;97.10;;;;;;5062931;28;19999;-75
2022/12/12 05:53:00;;;;;;;;;;;-0.40;97.10;;;;;;5061742;28;22129;-74
2022/12/12 05:55:27;;;;;;;;;;;-0.40;97.10;;;;;;5054640;28;20002;-75
2022/12/12 05:57:53;;;;;;;;;;;-0.40;97.10;;;;;;5061496;28;19990;-74
2022/12/12 06:00:20;;;;;;;;;;;-0.40;97.10;;;;;;5056444;28;19991;-73
2022/12/12 06:02:47;;;;;;;;;;;-0.40;97.10;;;;;;5056566;28;20600;-72
2022/12/12 06:05:13;;;;;;;;;;;-0.50;97.00;;;;;;5059139;28;19976;-73
2022/12/12 06:07:41;;;;;;;;;;;-0.50;97.00;;;;;;5059268;28;19979;-73
2022/12/12 06:10:08;;;;;;;;;;;-0.50;97.00;;;;;;5051786;28;19994;-73
2022/12/12 06:12:35;;;;;;;;;;;-0.50;97.00;;;;;;5051943;28;19979;-74
2022/12/12 06:15:01;;;;;;;;;;;-0.50;97.00;;;;;;5056712;28;19975;-74
2022/12/12 06:17:28;;;;;;;;;;;-0.50;97.00;;;;;;5057070;28;19995;-74
2022/12/12 06:19:55;;;;;;;;;;;-0.50;97.00;;;;;;5056842;28;19992;-73
2022/12/12 06:22:21;;;;;;;;;;;-0.50;97.00;;;;;;5055439;28;19994;-73
2022/12/12 06:24:49;;;;;;;;;;;-0.60;97.00;;;;;;5054618;28;19983;-74
2022/12/12 06:27:16;;;;;;;;;;;-0.60;97.00;;;;;;5050559;28;19971;-74
2022/12/12 06:29:42;;;;;;;;;;;-0.60;97.00;;;;;;5057768;28;19981;-73
2022/12/12 06:32:09;;;;;;;;;;;-0.60;97.00;;;;;;5056476;28;20002;-73
2022/12/12 06:34:37;;;;;;;;;;;-0.60;97.00;;;;;;5056240;28;20002;-74
2022/12/12 06:37:04;;;;;;;;;;;-0.60;97.00;;;;;;5060246;28;19983;-74
2022/12/12 06:39:30;;;;;;;;;;;-0.60;97.00;;;;;;5057863;28;20006;-72
2022/12/12 06:41:58;;;;;;;;;;;-0.60;97.00;;;;;;5055092;28;19992;-72
2022/12/12 06:44:25;;;;;;;;;;;-0.70;96.90;;;;;;5063209;28;19979;-72
2022/12/12 06:46:51;;;;;;;;;;;-0.60;97.00;;;;;;5062608;28;20002;-73
2022/12/12 06:49:18;;;;;;;;;;;-0.70;96.90;;;;;;5060945;28;20204;-73
2022/12/12 06:51:45;;;;;;;;;;;-0.70;96.90;;;;;;5058369;28;20006;-73
2022/12/12 06:54:12;;;;;;;;;;;-0.70;96.90;;;;;;5058570;28;20700;-72
2022/12/12 06:56:39;;;;;;;;;;;-0.70;96.90;;;;;;5057831;28;19979;-72
2022/12/12 06:59:07;;;;;;;;;;;-0.70;96.90;;;;;;5061127;28;20485;-73
2022/12/12 07:01:33;;;;;;;;;;;-0.70;96.90;;;;;;5060241;28;20788;-73
2022/12/12 07:04:00;;;;;;;;;;;-0.70;96.90;;;;;;5057796;28;20067;-72
2022/12/12 07:06:26;;;;;;;;;;;-0.70;96.90;;;;;;5061003;28;19983;-72
2022/12/12 07:08:53;;;;;;;;;;;-0.80;96.90;;;;;;5052781;28;19980;-72
2022/12/12 07:11:20;;;;;;;;;;;-0.80;96.90;;;;;;5054848;28;20451;-73
2022/12/12 07:13:47;;;;;;;;;;;-0.70;96.90;;;;;;5055044;28;19983;-72
2022/12/12 07:16:15;;;;;;;;;;;-0.80;96.90;;;;;;5056328;28;20003;-73
2022/12/12 07:18:42;;;;;;;;;;;-0.80;96.90;;;;;;5052493;28;19987;-73
2022/12/12 07:21:11;;;;;;;;;;;-0.80;96.80;;;;;;5057582;28;19991;-72
2022/12/12 07:23:38;;;;;;;;;;;-0.80;96.90;;;;;;5053774;28;20038;-72
2022/12/12 07:26:05;;;;;;;;;;;-0.80;97.20;;;;;;5055809;28;19975;-73
2022/12/12 07:28:32;;;;;;;;;;;-0.80;96.90;;;;;;5051820;28;20361;-72
2022/12/12 07:31:00;;;;;;;;;;;-0.80;96.90;;;;;;5059409;28;19995;-73
2022/12/12 07:33:27;;;;;;;;;;;-0.80;96.90;;;;;;5043509;28;20455;-72
2022/12/12 07:35:57;;;;;;;;;;;-0.80;96.90;;;;;;5052182;28;19984;-72
2022/12/12 07:38:23;;;;;;;;;;;-0.80;96.90;;;;;;5045794;28;20572;-73
2022/12/12 07:40:50;;;;;;;;;;;-0.80;96.90;;;;;;5054207;28;19991;-71
2022/12/12 07:43:17;;;;;;;;;;;-0.80;96.90;;;;;;5057651;28;19995;-72
2022/12/12 07:45:43;;;;;;;;;;;-0.80;97.00;;;;;;5056151;28;19995;-72
2022/12/12 07:48:10;;;;;;;;;;;-0.90;96.90;;;;;;5056891;28;20360;-72
2022/12/12 07:50:39;;;;;;;;;;;-0.90;96.90;;;;;;5062722;28;19991;-72
2022/12/12 07:53:06;;;;;;;;;;;-0.80;97.00;;;;;;5060154;28;20057;-73
2022/12/12 07:55:33;;;;;;;;;;;-0.80;97.00;;;;;;5062510;28;19990;-71
2022/12/12 07:58:00;;;;;;;;;;;-0.80;97.00;;;;;;5065179;28;20023;-72
2022/12/12 08:00:26;;;;;;;;;;;-0.80;97.00;;;;;;5065603;28;20022;-73
2022/12/12 08:02:53;;;;;;;;;;;-0.80;97.00;;;;;;5051781;28;20006;-72
2022/12/12 08:05:19;;;;;;;;;;;-0.80;97.00;;;;;;5057778;28;19981;-73
2022/12/12 08:07:47;;;;;;;;;;;-0.80;97.00;;;;;;5052788;28;19987;-73
2022/12/12 08:10:14;;;;;;;;;;;-0.80;97.00;;;;;;5049849;28;19996;-73
2022/12/12 08:12:41;;;;;;;;;;;-0.80;97.00;;;;;;5054239;28;20437;-73
2022/12/12 08:15:08;;;;;;;;;;;-0.80;97.00;;;;;;5058539;28;19975;-73
2022/12/12 08:17:35;;;;;;;;;;;-0.80;97.00;;;;;;5058104;28;20581;-74
2022/12/12 08:20:02;;;;;;;;;;;-0.80;97.00;;;;;;5051593;28;20552;-74
2022/12/12 08:22:28;;;;;;;;;;;-0.80;97.00;;;;;;5053569;28;19992;-73
2022/12/12 08:24:56;;;;;;;;;;;-0.80;97.00;;;;;;5052770;28;19983;-74
2022/12/12 08:27:23;;;;;;;;;;;-0.80;97.00;;;;;;5050856;28;19984;-74
2022/12/12 08:29:51;;;;;;;;;;;-0.80;97.00;;;;;;5060116;28;19975;-74
2022/12/12 08:32:17;;;;;;;;;;;-0.80;97.00;;;;;;5058446;28;19999;-74
2022/12/12 08:34:44;;;;;;;;;;;-0.80;97.00;;;;;;5060864;28;20430;-74
2022/12/12 08:37:11;;;;;;;;;;;-0.80;97.00;;;;;;5050068;28;19976;-74
2022/12/12 08:39:38;;;;;;;;;;;-0.80;97.10;;;;;;5054061;28;19979;-73
2022/12/12 08:42:06;;;;;;;;;;;-0.80;97.00;;;;;;5057139;28;19977;-74
2022/12/12 08:44:32;;;;;;;;;;;-0.80;97.00;;;;;;5062128;28;19985;-74
2022/12/12 08:46:59;;;;;;;;;;;-0.80;97.00;;;;;;5061263;28;19991;-73
2022/12/12 08:49:26;;;;;;;;;;;-0.80;97.00;;;;;;5055753;28;19987;-73
2022/12/12 08:51:52;;;;;;;;;;;-0.70;97.00;;;;;;5047972;28;19991;-73
2022/12/12 08:54:19;;;;;;;;;;;-0.70;97.00;;;;;;5051448;28;19976;-73
2022/12/12 08:56:45;;;;;;;;;;;-0.70;97.00;;;;;;5052966;28;19980;-74
2022/12/12 08:59:14;;;;;;;;;;;-0.70;97.00;;;;;;5059709;28;19999;-73
2022/12/12 09:01:40;;;;;;;;;;;-0.70;97.40;;;;;;5065180;28;20038;-74
2022/12/12 09:04:07;;;;;;;;;;;-0.70;97.00;;;;;;5082416;28;19991;-74
2022/12/12 09:06:33;;;;;;;;;;;-0.70;97.00;;;;;;5080194;28;20396;-74
2022/12/12 09:09:00;;;;;;;;;;;-0.70;97.00;;;;;;5076443;28;20354;-74
2022/12/12 09:11:27;;;;;;;;;;;-0.70;96.90;;;;;;5073937;28;19994;-74
2022/12/12 09:13:54;;;;;;;;;;;-0.70;96.90;;;;;;5075892;28;19971;-74
2022/12/12 09:16:25;;;;;;;;;;;-0.70;96.90;;;;;;5075090;28;19991;-75
2022/12/12 09:18:51;;;;;;;;;;;-0.70;97.00;;;;;;5075636;28;19981;-74
2022/12/12 09:21:18;;;;;;;;;;;-0.70;97.30;;;;;;5079736;28;20021;-74
2022/12/12 09:23:45;;;;;;;;;;;-0.60;97.30;;;;;;5075188;28;19998;-73
2022/12/12 09:26:11;;;;;;;;;;;-0.60;96.90;;;;;;5071425;28;19975;-74
2022/12/12 09:28:38;;;;;;;;;;;-0.60;96.90;;;;;;5076807;28;20438;-73
2022/12/12 09:31:05;;;;;;;;;;;-0.60;96.90;;;;;;5062168;28;19996;-73
2022/12/12 09:33:33;;;;;;;;;;;-0.60;96.90;;;;;;5056509;28;19987;-73
2022/12/12 09:36:00;;;;;;;;;;;-0.60;96.90;;;;;;5056812;28;19985;-73
2022/12/12 09:38:27;;;;;;;;;;;-0.60;96.90;;;;;;5053604;28;19976;-74
2022/12/12 09:40:56;;;;;;;;;;;-0.60;96.90;;;;;;5056876;28;19995;-74
2022/12/12 09:43:24;;;;;;;;;;;-0.50;96.90;;;;;;5063786;28;19998;-74
2022/12/12 09:45:51;;;;;;;;;;;-0.50;96.90;;;;;;5060549;28;19999;-73
2022/12/12 09:48:22;;;;;;;;;;;-0.50;96.90;;;;;;5062751;28;19986;-74
2022/12/12 09:50:50;;;;;;;;;;;-0.50;96.90;;;;;;5062328;28;20479;-74
2022/12/12 09:53:19;;;;;;;;;;;-0.50;96.80;;;;;;5059975;28;19987;-74
2022/12/12 09:55:50;;;;;;;;;;;-0.50;96.80;;;;;;5057916;28;19983;-74
2022/12/12 09:58:19;;;;;;;;;;;-0.50;96.80;;;;;;5061761;28;19987;-73
2022/12/12 10:00:47;;;;;;;;;;;-0.50;96.80;;;;;;5060810;28;19996;-74
2022/12/12 10:03:17;;;;;;;;;;;-0.50;96.70;;;;;;5057556;28;19999;-73
2022/12/12 10:05:45;;;;;;;;;;;-0.50;96.80;;;;;;5062421;28;20064;-74
2022/12/12 10:08:16;;;;;;;;;;;-0.40;96.80;;;;;;5062192;28;20430;-74
2022/12/12 10:10:44;;;;;;;;;;;-0.40;96.70;;;;;;5057768;28;19996;-74
2022/12/12 10:13:14;;;;;;;;;;;-0.40;96.70;;;;;;5064751;28;19975;-74
2022/12/12 10:15:42;;;;;;;;;;;-0.40;96.70;;;;;;5057282;28;19976;-73
2022/12/12 10:18:12;;;;;;;;;;;-0.40;96.70;;;;;;5057570;28;20451;-73
2022/12/12 10:20:43;;;;;;;;;;;-0.40;96.70;;;;;;5059076;28;19996;-73
2022/12/12 10:23:14;;;;;;;;;;;-0.30;96.70;;;;;;5063396;28;20459;-74
2022/12/12 10:25:46;;;;;;;;;;;-0.40;96.60;;;;;;5060284;28;19980;-73
2022/12/12 10:28:14;;;;;;;;;;;-0.30;96.70;;;;;;5055229;28;19971;-74
2022/12/12 10:30:49;;;;;;;;;;;-0.30;96.60;;;;;;5052789;28;19991;-73
2022/12/12 10:33:20;;;;;;;;;;;-0.30;96.60;;;;;;5063954;28;20427;-74
2022/12/12 10:35:50;;;;;;;;;;;-0.30;96.60;;;;;;5065202;28;19983;-74
2022/12/12 10:38:24;;;;;;;;;;;-0.30;96.60;;;;;;5060281;28;20542;-74
2022/12/12 10:40:56;;;;;;;;;;;-0.30;96.50;;;;;;5058741;28;19995;-74
2022/12/12 10:43:29;;;;;;;;;;;-0.30;96.50;;;;;;5059068;28;20478;-74
2022/12/12 10:46:09;;;;;;;;;;;-0.30;96.50;;;;;;5061712;28;21312;-73
2022/12/12 10:48:35;;;;;;;;;;;-0.20;96.50;;;;;;5058244;28;19995;-73
2022/12/12 10:51:04;;;;;;;;;;;-0.20;96.50;;;;;;5061109;28;19998;-74
2022/12/12 10:53:31;;;;;;;;;;;-0.20;96.50;;;;;;5064033;28;20360;-74
2022/12/12 10:56:01;;;;;;;;;;;-0.20;96.40;;;;;;5054274;28;20064;-73
2022/12/12 10:58:35;;;;;;;;;;;-0.20;96.40;;;;;;5058119;28;19980;-74
2022/12/12 11:01:03;;;;;;;;;;;-0.20;96.50;;;;;;5068638;28;20101;-74
2022/12/12 11:03:32;;;;;;;;;;;-0.20;96.40;;;;;;5084050;28;20002;-74
2022/12/12 11:06:02;;;;;;;;;;;-0.20;96.40;;;;;;5084283;28;19975;-73
2022/12/12 11:08:30;;;;;;;;;;;-0.20;96.30;;;;;;5082551;28;19979;-74
2022/12/12 11:11:05;;;;;;;;;;;-0.10;96.30;;;;;;5082655;28;20002;-74
2022/12/12 11:13:38;;;;;;;;;;;-0.20;96.30;;;;;;5083604;28;19987;-74
2022/12/12 11:16:07;;;;;;;;;;;-0.10;96.30;;;;;;5078373;28;19995;-74
2022/12/12 11:18:34;;;;;;;;;;;-0.10;96.20;;;;;;5079563;28;19979;-74
2022/12/12 11:21:04;;;;;;;;;;;-0.10;96.20;;;;;;5073010;28;20421;-74
2022/12/12 11:23:32;;;;;;;;;;;-0.10;96.10;;;;;;5072147;28;19995;-74
2022/12/12 11:26:00;;;;;;;;;;;-0.10;96.10;;;;;;5071331;28;19982;-75
2022/12/12 11:28:31;;;;;;;;;;;-0.10;96.00;;;;;;5075469;28;19986;-75
2022/12/12 11:31:01;;;;;;;;;;;0.00;96.10;;;;;;5072326;28;20002;-71
2022/12/12 11:33:30;;;;;;;;;;;-0.10;96.30;;;;;;5069828;28;19975;-73
2022/12/12 11:35:58;;;;;;;;;;;0.00;96.00;;;;;;5070027;28;20091;-72
2022/12/12 11:38:25;;;;;;;;;;;0.00;96.00;;;;;;5079719;28;19979;-75
2022/12/12 11:40:57;;;;;;;;;;;0.00;96.00;;;;;;5075009;28;19999;-76
2022/12/12 11:43:24;;;;;;;;;;;0.00;95.90;;;;;;5075732;28;20498;-75
2022/12/12 11:46:00;;;;;;;;;;;0.00;95.90;;;;;;5074787;28;19998;-76
2022/12/12 11:48:39;;;;;;;;;;;0.00;95.90;;;;;;5070620;28;19979;-75
2022/12/12 11:51:06;;;;;;;;;;;0.00;95.90;;;;;;5070281;28;19990;-75
2022/12/12 11:53:35;;;;;;;;;;;0.00;95.90;;;;;;5077784;28;19975;-76
2022/12/12 11:56:09;;;;;;;;;;;0.10;95.90;;;;;;5072254;28;19997;-76
2022/12/12 11:58:38;;;;;;;;;;;0.10;95.90;;;;;;5075376;28;19979;-76
2022/12/12 12:01:10;;;;;;;;;;;0.10;95.90;;;;;;5075664;28;20002;-76
2022/12/12 12:03:52;;;;;;;;;;;0.10;95.90;;;;;;5077986;28;20445;-75
2022/12/12 12:06:32;;;;;;;;;;;0.10;95.90;;;;;;5071048;28;19975;-75
2022/12/12 12:09:06;;;;;;;;;;;0.10;95.90;;;;;;5075753;28;19975;-73
2022/12/12 12:11:37;;;;;;;;;;;0.10;95.90;;;;;;5077813;28;20029;-76
2022/12/12 12:14:11;;;;;;;;;;;0.10;95.90;;;;;;5074145;28;19986;-77
2022/12/12 12:16:45;;;;;;;;;;;0.10;95.80;;;;;;5064342;28;19991;-76
2022/12/12 12:19:16;;;;;;;;;;;0.10;95.80;;;;;;5077470;28;19981;-76
2022/12/12 12:21:47;;;;;;;;;;;0.20;95.80;;;;;;5081451;28;19994;-76
2022/12/12 12:24:21;;;;;;;;;;;0.20;95.80;;;;;;5081956;28;19998;-76
2022/12/12 12:26:52;;;;;;;;;;;0.20;95.80;;;;;;5082003;28;19986;-75
2022/12/12 12:29:29;;;;;;;;;;;0.20;95.80;;;;;;5081194;28;20541;-76
2022/12/12 12:32:00;;;;;;;;;;;0.20;95.80;;;;;;5081054;28;20490;-76
2022/12/12 12:34:30;;;;;;;;;;;0.20;95.80;;;;;;5077355;28;20685;-75
2022/12/12 12:37:05;;;;;;;;;;;0.20;95.80;;;;;;5075758;28;19990;-76
2022/12/12 12:39:40;;;;;;;;;;;0.20;95.70;;;;;;5078040;28;20026;-76
2022/12/12 12:42:12;;;;;;;;;;;0.30;95.70;;;;;;5076693;28;20438;-76
2022/12/12 12:44:43;;;;;;;;;;;0.30;95.70;;;;;;5076893;28;19990;-76
2022/12/12 12:47:18;;;;;;;;;;;0.30;95.70;;;;;;5075653;28;19996;-76
2022/12/12 12:49:50;;;;;;;;;;;0.30;95.70;;;;;;5070538;28;19987;-76
2022/12/12 12:52:17;;;;;;;;;;;0.30;95.70;;;;;;5071164;28;19986;-75
2022/12/12 12:54:45;;;;;;;;;;;0.40;95.70;;;;;;5071184;28;19998;-76
2022/12/12 12:57:14;;;;;;;;;;;0.40;95.60;;;;;;5078266;28;19982;-74
2022/12/12 12:59:43;;;;;;;;;;;0.40;95.60;;;;;;5074719;28;19978;-75
2022/12/12 13:02:16;;;;;;;;;;;0.40;95.60;;;;;;5071120;28;20002;-75
2022/12/12 13:04:46;;;;;;;;;;;0.40;95.60;;;;;;5076757;28;19991;-75
2022/12/12 13:07:15;;;;;;;;;;;0.40;95.60;;;;;;5076757;28;19975;-75
2022/12/12 13:09:46;;;;;;;;;;;0.40;95.60;;;;;;5073441;28;19975;-75
2022/12/12 13:12:15;;;;;;;;;;;0.40;95.60;;;;;;5075276;28;19975;-76
2022/12/12 13:14:44;;;;;;;;;;;0.40;95.60;;;;;;5077976;28;20360;-76
2022/12/12 13:17:15;;;;;;;;;;;0.40;95.60;;;;;;5072052;28;20467;-75
2022/12/12 13:19:44;;;;;;;;;;;0.40;95.60;;;;;;5077660;28;19975;-74
2022/12/12 13:22:13;;;;;;;;;;;0.40;95.50;;;;;;5073058;28;20384;-75
2022/12/12 13:24:44;;;;;;;;;;;0.40;95.50;;;;;;5075919;28;20003;-75
2022/12/12 13:27:13;;;;;;;;;;;0.40;95.60;;;;;;5073915;28;19983;-76
2022/12/12 13:29:43;;;;;;;;;;;0.40;95.60;;;;;;5081342;28;19978;-75
2022/12/12 13:32:25;;;;;;;;;;;0.50;95.60;;;;;;5075600;28;20359;-76
2022/12/12 13:34:55;;;;;;;;;;;0.50;95.50;;;;;;5080238;28;19975;-77
2022/12/12 13:37:22;;;;;;;;;;;0.50;95.50;;;;;;5080344;28;19979;-76
2022/12/12 13:39:57;;;;;;;;;;;0.60;95.50;;;;;;5078026;28;20493;-76
2022/12/12 13:42:23;;;;;;;;;;;0.60;95.30;;;;;;5072436;28;19979;-79
2022/12/12 13:44:50;;;;;;;;;;;0.70;95.20;;;;;;5073641;28;19991;-77
2022/12/12 13:47:36;;;;;;;;;;;0.70;95.20;;;;;;5073043;28;20591;-77
2022/12/12 13:50:06;;;;;;;;;;;0.80;95.10;;;;;;5076110;28;19998;-73
2022/12/12 13:52:33;;;;;;;;;;;0.90;95.40;;;;;;5084995;28;19979;-74
2022/12/12 13:55:20;;;;;;;;;;;0.90;95.00;;;;;;5085134;28;19974;-73
2022/12/12 13:58:04;;;;;;;;;;;0.90;94.90;;;;;;5080536;28;19979;-73
2022/12/12 14:00:31;;;;;;;;;;;1.00;94.90;;;;;;5080148;28;21117;-74
2022/12/12 14:03:00;;;;;;;;;;;1.00;94.80;;;;;;5060793;28;19975;-74
2022/12/12 14:05:29;;;;;;;;;;;1.10;94.80;;;;;;5066055;28;19996;-73
2022/12/12 14:08:00;;;;;;;;;;;1.10;94.70;;;;;;5064649;28;19987;-74
2022/12/12 14:10:28;;;;;;;;;;;1.20;94.70;;;;;;5059212;28;19995;-74
2022/12/12 14:12:54;;;;;;;;;;;1.20;94.70;;;;;;5057877;28;19987;-74
2022/12/12 14:15:22;;;;;;;;;;;1.20;94.60;;;;;;5061609;28;19980;-73
2022/12/12 14:17:53;;;;;;;;;;;1.20;94.60;;;;;;5057793;28;20502;-71
2022/12/12 14:20:28;;;;;;;;;;;1.20;94.60;;;;;;5062457;28;19999;-73
2022/12/12 14:23:23;;;;;;;;;;;1.20;94.50;;;;;;5060816;28;19975;-74
2022/12/12 14:25:49;;;;;;;;;;;1.10;94.50;;;;;;5051812;28;20017;-74
2022/12/12 14:28:18;;;;;;;;;;;1.10;94.60;;;;;;5062966;28;19976;-74
2022/12/12 14:30:46;;;;;;;;;;;1.10;94.60;;;;;;5059866;28;20004;-73
2022/12/12 14:33:34;;;;;;;;;;;1.00;94.70;;;;;;5065020;28;19986;-74
2022/12/12 14:36:03;;;;;;;;;;;1.00;94.70;;;;;;5026097;28;19980;-73
2022/12/12 14:38:34;;;;;;;;;;;1.00;94.70;;;;;;5057267;28;20384;-74
2022/12/12 14:41:03;;;;;;;;;;;0.90;94.70;;;;;;5060192;28;20088;-73
2022/12/12 14:43:30;;;;;;;;;;;0.90;94.80;;;;;;5062640;28;20062;-74